AFL1363 URMT-UUEE
Flight info
| Callsign | AFL1363 |
|---|---|
| Flight time | 2h 50m |
| Altitude | 35000 |
| Route | GIRTI B494 RISKA R227 BEMES DCT VULFI DCT TUVGI/K0807F340 DCT EVZUN/K0830F360 DCT ZIZAR DCT VAZLU DCT UZZID DCT NOKLI/K0832F350 N72 WGD G481 OBABI T619 LUGIL/K0837F360 T619 UMRAL/K0832F350 P163 LADIM/K0839F360 P163 GOLRI L736 OLOPI |
| Aircraft | A320/M-SDE2E3FGHIJ1RWY/LB1U1 |
Departure
| Time | 2026-04-24 13:00 |
|---|---|
| Airport | Stavropol Shpakovskoye Airport (URMT) |
Arrival
| Time | 2026-04-24 15:51 |
|---|---|
| Airport | Sheremetyevo International Airport (UUEE) |
| Time | Latitude | Longitude | Altitude | Speed | Heading |
|---|---|---|---|---|---|
| 2026-04-24 12:43 | 45.11165 | 42.10601 | 1477 ft | 0 kts | 253° |
| 2026-04-24 12:51 | 45.11156 | 42.10567 | 1484 ft | 5 kts | 240° |
| 2026-04-24 12:51 | 45.11134 | 42.10549 | 1465 ft | 2 kts | 195° |
| 2026-04-24 12:51 | 45.11124 | 42.10548 | 1467 ft | 0 kts | 184° |
| 2026-04-24 12:51 | 45.11108 | 42.10550 | 1470 ft | 6 kts | 172° |
| 2026-04-24 12:52 | 45.11067 | 42.10575 | 1474 ft | 6 kts | 137° |
| 2026-04-24 12:52 | 45.11064 | 42.10634 | 1477 ft | 9 kts | 78° |
| 2026-04-24 12:52 | 45.11037 | 42.10735 | 1476 ft | 12 kts | 153° |
| 2026-04-24 12:52 | 45.10961 | 42.10766 | 1473 ft | 10 kts | 167° |
| 2026-04-24 12:53 | 45.10898 | 42.10787 | 1472 ft | 8 kts | 166° |
| 2026-04-24 12:53 | 45.10859 | 42.10860 | 1471 ft | 15 kts | 94° |
| 2026-04-24 12:53 | 45.10883 | 42.11019 | 1463 ft | 19 kts | 76° |
| 2026-04-24 12:53 | 45.10921 | 42.11227 | 1463 ft | 26 kts | 76° |
| 2026-04-24 12:54 | 45.10967 | 42.11485 | 1463 ft | 28 kts | 76° |
| 2026-04-24 12:54 | 45.11018 | 42.11760 | 1461 ft | 28 kts | 76° |
| 2026-04-24 12:54 | 45.11065 | 42.12027 | 1458 ft | 28 kts | 75° |
| 2026-04-24 12:54 | 45.11112 | 42.12280 | 1454 ft | 25 kts | 75° |
| 2026-04-24 12:55 | 45.11157 | 42.12528 | 1447 ft | 25 kts | 75° |
| 2026-04-24 12:55 | 45.11189 | 42.12701 | 1444 ft | 14 kts | 70° |
| 2026-04-24 12:55 | 45.11242 | 42.12795 | 1444 ft | 9 kts | 40° |
| 2026-04-24 12:55 | 45.11239 | 42.12858 | 1444 ft | 6 kts | 154° |
| 2026-04-24 12:56 | 45.11210 | 42.12832 | 1444 ft | 4 kts | 247° |
| 2026-04-24 12:56 | 45.11208 | 42.12814 | 1441 ft | 0 kts | 258° |
| 2026-04-24 12:59 | 45.11161 | 42.12541 | 1448 ft | 65 kts | 255° |
| 2026-04-24 12:59 | 45.10993 | 42.11618 | 1462 ft | 126 kts | 255° |
| 2026-04-24 13:00 | 45.10736 | 42.10214 | 1649 ft | 157 kts | 259° |
| 2026-04-24 13:00 | 45.10487 | 42.08769 | 2513 ft | 151 kts | 258° |
| 2026-04-24 13:00 | 45.10547 | 42.07331 | 3305 ft | 151 kts | 295° |
| 2026-04-24 13:00 | 45.11411 | 42.06406 | 3972 ft | 168 kts | 337° |
| 2026-04-24 13:01 | 45.12626 | 42.06756 | 4564 ft | 199 kts | 25° |
| 2026-04-24 13:01 | 45.13482 | 42.08432 | 4842 ft | 235 kts | 72° |
| 2026-04-24 13:01 | 45.13434 | 42.10819 | 5028 ft | 256 kts | 111° |
| 2026-04-24 13:01 | 45.12702 | 42.13215 | 5254 ft | 276 kts | 124° |
| 2026-04-24 13:02 | 45.11629 | 42.15614 | 5599 ft | 294 kts | 133° |
| 2026-04-24 13:02 | 45.10446 | 42.17974 | 6305 ft | 301 kts | 133° |
| 2026-04-24 13:02 | 45.09243 | 42.20422 | 7110 ft | 304 kts | 133° |
| 2026-04-24 13:02 | 45.08040 | 42.22891 | 7958 ft | 305 kts | 133° |
| 2026-04-24 13:03 | 45.06832 | 42.25373 | 8803 ft | 307 kts | 133° |
| 2026-04-24 13:03 | 45.05619 | 42.27860 | 9647 ft | 308 kts | 134° |
| 2026-04-24 13:03 | 45.04390 | 42.30366 | 10256 ft | 318 kts | 134° |
| 2026-04-24 13:03 | 45.03072 | 42.33018 | 10449 ft | 341 kts | 134° |
| 2026-04-24 13:04 | 45.01679 | 42.35825 | 10895 ft | 353 kts | 133° |
| 2026-04-24 13:04 | 45.00267 | 42.38696 | 11578 ft | 358 kts | 133° |
| 2026-04-24 13:04 | 44.98847 | 42.41598 | 12311 ft | 361 kts | 133° |
| 2026-04-24 13:04 | 44.97413 | 42.44526 | 13018 ft | 364 kts | 133° |
| 2026-04-24 13:05 | 44.95966 | 42.47474 | 13723 ft | 367 kts | 133° |
| 2026-04-24 13:05 | 44.94500 | 42.50451 | 14306 ft | 371 kts | 133° |
| 2026-04-24 13:05 | 44.93011 | 42.53456 | 14862 ft | 376 kts | 132° |
| 2026-04-24 13:05 | 44.91501 | 42.56497 | 15416 ft | 381 kts | 132° |
| 2026-04-24 13:06 | 44.89982 | 42.59590 | 15976 ft | 387 kts | 130° |
| 2026-04-24 13:06 | 44.88508 | 42.62806 | 16545 ft | 393 kts | 128° |
| 2026-04-24 13:06 | 44.87072 | 42.66115 | 17092 ft | 399 kts | 127° |
| 2026-04-24 13:06 | 44.85642 | 42.69503 | 17629 ft | 404 kts | 126° |
| 2026-04-24 13:07 | 44.84202 | 42.72933 | 18200 ft | 409 kts | 126° |
| 2026-04-24 13:07 | 44.82736 | 42.76391 | 18694 ft | 413 kts | 127° |
| 2026-04-24 13:07 | 44.81244 | 42.79859 | 19222 ft | 415 kts | 127° |
| 2026-04-24 13:07 | 44.79730 | 42.83337 | 19737 ft | 418 kts | 128° |
| 2026-04-24 13:08 | 44.78200 | 42.86829 | 20257 ft | 421 kts | 128° |
| 2026-04-24 13:08 | 44.76653 | 42.90344 | 20761 ft | 424 kts | 128° |
| 2026-04-24 13:08 | 44.75094 | 42.93876 | 21286 ft | 427 kts | 129° |
| 2026-04-24 13:09 | 44.71968 | 43.01035 | 22279 ft | 434 kts | 128° |
| 2026-04-24 13:09 | 44.70435 | 43.04709 | 22762 ft | 437 kts | 127° |
| 2026-04-24 13:09 | 44.68912 | 43.08430 | 23233 ft | 441 kts | 127° |
| 2026-04-24 13:09 | 44.67383 | 43.12185 | 23637 ft | 444 kts | 127° |
| 2026-04-24 13:10 | 44.65838 | 43.15960 | 23999 ft | 447 kts | 127° |
| 2026-04-24 13:10 | 44.64277 | 43.19744 | 24359 ft | 450 kts | 128° |
| 2026-04-24 13:10 | 44.62697 | 43.23551 | 24709 ft | 452 kts | 128° |
| 2026-04-24 13:10 | 44.61106 | 43.27368 | 25060 ft | 455 kts | 128° |
| 2026-04-24 13:11 | 44.59501 | 43.31204 | 25410 ft | 457 kts | 128° |
| 2026-04-24 13:11 | 44.57886 | 43.35056 | 25746 ft | 459 kts | 128° |
| 2026-04-24 13:11 | 44.56258 | 43.38927 | 26080 ft | 462 kts | 128° |
| 2026-04-24 13:11 | 44.54623 | 43.42806 | 26412 ft | 464 kts | 128° |
| 2026-04-24 13:12 | 44.52977 | 43.46711 | 26736 ft | 466 kts | 128° |
| 2026-04-24 13:12 | 44.51325 | 43.50628 | 27052 ft | 469 kts | 128° |
| 2026-04-24 13:12 | 44.49663 | 43.54569 | 27369 ft | 471 kts | 128° |
| 2026-04-24 13:12 | 44.47994 | 43.58529 | 27676 ft | 473 kts | 128° |
| 2026-04-24 13:13 | 44.46319 | 43.62504 | 27981 ft | 475 kts | 128° |
| 2026-04-24 13:13 | 44.44651 | 43.66517 | 28271 ft | 478 kts | 127° |
| 2026-04-24 13:13 | 44.42995 | 43.70566 | 28565 ft | 480 kts | 127° |
| 2026-04-24 13:13 | 44.41342 | 43.74639 | 28863 ft | 482 kts | 127° |
| 2026-04-24 13:14 | 44.39685 | 43.78721 | 29151 ft | 484 kts | 127° |
| 2026-04-24 13:14 | 44.38018 | 43.82813 | 29428 ft | 485 kts | 127° |
| 2026-04-24 13:14 | 44.36341 | 43.86918 | 29720 ft | 487 kts | 127° |
| 2026-04-24 13:14 | 44.34655 | 43.91030 | 29982 ft | 488 kts | 127° |
| 2026-04-24 13:15 | 44.32957 | 43.95149 | 30202 ft | 489 kts | 127° |
| 2026-04-24 13:15 | 44.31251 | 43.99270 | 30414 ft | 491 kts | 127° |
| 2026-04-24 13:15 | 44.29541 | 44.03395 | 30640 ft | 492 kts | 127° |
| 2026-04-24 13:15 | 44.27826 | 44.07526 | 30889 ft | 492 kts | 127° |
| 2026-04-24 13:16 | 44.26109 | 44.11656 | 31214 ft | 491 kts | 127° |
| 2026-04-24 13:16 | 44.24401 | 44.15764 | 31516 ft | 490 kts | 127° |
| 2026-04-24 13:16 | 44.22696 | 44.19867 | 31796 ft | 489 kts | 127° |
| 2026-04-24 13:16 | 44.20992 | 44.23964 | 32082 ft | 488 kts | 127° |
| 2026-04-24 13:17 | 44.19289 | 44.28058 | 32373 ft | 487 kts | 127° |
| 2026-04-24 13:17 | 44.17612 | 44.32083 | 32637 ft | 487 kts | 127° |
| 2026-04-24 13:17 | 44.15889 | 44.36206 | 32924 ft | 486 kts | 127° |
| 2026-04-24 13:17 | 44.14184 | 44.40274 | 33178 ft | 486 kts | 127° |
| 2026-04-24 13:18 | 44.12478 | 44.44334 | 33434 ft | 486 kts | 127° |
| 2026-04-24 13:18 | 44.10791 | 44.48339 | 33681 ft | 486 kts | 127° |
| 2026-04-24 13:18 | 44.09083 | 44.52391 | 33922 ft | 486 kts | 127° |
| 2026-04-24 13:18 | 44.07537 | 44.56602 | 34131 ft | 493 kts | 118° |
| 2026-04-24 13:19 | 44.06445 | 44.61157 | 34337 ft | 501 kts | 108° |
| 2026-04-24 13:19 | 44.05834 | 44.65946 | 34541 ft | 505 kts | 102° |
| 2026-04-24 13:19 | 44.05351 | 44.70776 | 34731 ft | 505 kts | 102° |
| 2026-04-24 13:19 | 44.04858 | 44.75606 | 34842 ft | 504 kts | 102° |
| 2026-04-24 13:20 | 44.04019 | 44.83645 | 34861 ft | 500 kts | 103° |
| 2026-04-24 13:20 | 44.03007 | 44.93203 | 34852 ft | 500 kts | 103° |
| 2026-04-24 13:21 | 44.01988 | 45.02760 | 34847 ft | 500 kts | 103° |
| 2026-04-24 13:21 | 44.00965 | 45.12318 | 34847 ft | 501 kts | 103° |
| 2026-04-24 13:22 | 43.99934 | 45.21878 | 34840 ft | 501 kts | 103° |
| 2026-04-24 13:22 | 43.98892 | 45.31372 | 34832 ft | 501 kts | 103° |
| 2026-04-24 13:23 | 43.97825 | 45.40923 | 34828 ft | 501 kts | 103° |
| 2026-04-24 13:23 | 43.96749 | 45.50468 | 34821 ft | 501 kts | 103° |
| 2026-04-24 13:24 | 43.95653 | 45.60077 | 34820 ft | 501 kts | 103° |
| 2026-04-24 13:24 | 43.94561 | 45.69627 | 34821 ft | 501 kts | 103° |
| 2026-04-24 13:25 | 43.93463 | 45.79168 | 34825 ft | 501 kts | 104° |
| 2026-04-24 13:25 | 43.92482 | 45.88744 | 34827 ft | 504 kts | 96° |
| 2026-04-24 13:26 | 43.92902 | 45.98434 | 34823 ft | 509 kts | 86° |
| 2026-04-24 13:26 | 43.93632 | 46.08196 | 34823 ft | 509 kts | 86° |
| 2026-04-24 13:27 | 43.94334 | 46.17961 | 34835 ft | 509 kts | 87° |
| 2026-04-24 13:27 | 43.95022 | 46.27728 | 34833 ft | 508 kts | 87° |
| 2026-04-24 13:28 | 43.95709 | 46.37496 | 34835 ft | 508 kts | 87° |
| 2026-04-24 13:28 | 43.96385 | 46.47243 | 34832 ft | 507 kts | 87° |
| 2026-04-24 13:29 | 43.97055 | 46.56987 | 34836 ft | 507 kts | 88° |
| 2026-04-24 13:29 | 43.97713 | 46.66728 | 34833 ft | 507 kts | 88° |
| 2026-04-24 13:30 | 43.98367 | 46.76464 | 34833 ft | 506 kts | 88° |
| 2026-04-24 13:30 | 43.99018 | 46.86203 | 34833 ft | 506 kts | 88° |
| 2026-04-24 13:31 | 43.99653 | 46.95931 | 34835 ft | 506 kts | 88° |
| 2026-04-24 13:31 | 44.00266 | 47.05655 | 34832 ft | 505 kts | 88° |
| 2026-04-24 13:32 | 44.00879 | 47.15380 | 34833 ft | 505 kts | 88° |
| 2026-04-24 13:32 | 44.01498 | 47.25099 | 34832 ft | 505 kts | 88° |
| 2026-04-24 13:33 | 44.02093 | 47.34819 | 34831 ft | 505 kts | 88° |
| 2026-04-24 13:33 | 44.02683 | 47.44535 | 34835 ft | 505 kts | 89° |
| 2026-04-24 13:34 | 44.03272 | 47.54266 | 34836 ft | 505 kts | 89° |
| 2026-04-24 13:34 | 44.03847 | 47.63990 | 34840 ft | 505 kts | 89° |
| 2026-04-24 13:35 | 44.04415 | 47.73726 | 34842 ft | 505 kts | 89° |
| 2026-04-24 13:35 | 44.04968 | 47.83463 | 34839 ft | 505 kts | 89° |
| 2026-04-24 13:36 | 44.05523 | 47.93201 | 34840 ft | 505 kts | 89° |
| 2026-04-24 13:36 | 44.06068 | 48.02930 | 34839 ft | 505 kts | 89° |
| 2026-04-24 13:37 | 44.06596 | 48.12674 | 34843 ft | 505 kts | 89° |
| 2026-04-24 13:37 | 44.07117 | 48.22418 | 34841 ft | 505 kts | 89° |
| 2026-04-24 13:38 | 44.07642 | 48.32158 | 34845 ft | 505 kts | 89° |
| 2026-04-24 13:38 | 44.08160 | 48.41895 | 34847 ft | 505 kts | 90° |
| 2026-04-24 13:39 | 44.08663 | 48.51622 | 34848 ft | 504 kts | 90° |
| 2026-04-24 13:39 | 44.09168 | 48.61349 | 34842 ft | 504 kts | 90° |
| 2026-04-24 13:40 | 44.09655 | 48.71060 | 34842 ft | 503 kts | 90° |
| 2026-04-24 13:40 | 44.10130 | 48.80773 | 34844 ft | 503 kts | 90° |
| 2026-04-24 13:41 | 44.11282 | 48.90363 | 34839 ft | 509 kts | 69° |
| 2026-04-24 13:41 | 44.12942 | 48.94716 | 34835 ft | 510 kts | 53° |
| 2026-04-24 13:41 | 44.15263 | 48.98406 | 34831 ft | 506 kts | 38° |
| 2026-04-24 13:42 | 44.18127 | 49.01164 | 34855 ft | 497 kts | 18° |
| 2026-04-24 13:42 | 44.21379 | 49.02508 | 34984 ft | 482 kts | 0° |
| 2026-04-24 13:42 | 44.24699 | 49.02869 | 35116 ft | 476 kts | 353° |
| 2026-04-24 13:42 | 44.27983 | 49.02706 | 35255 ft | 470 kts | 345° |
| 2026-04-24 13:43 | 44.31155 | 49.01901 | 35429 ft | 458 kts | 334° |
| 2026-04-24 13:43 | 44.34164 | 49.00516 | 35596 ft | 453 kts | 331° |
| 2026-04-24 13:43 | 44.37098 | 48.98936 | 35773 ft | 451 kts | 328° |
| 2026-04-24 13:43 | 44.39981 | 48.97229 | 35850 ft | 450 kts | 327° |
| 2026-04-24 13:44 | 44.45702 | 48.93685 | 35856 ft | 450 kts | 327° |
| 2026-04-24 13:44 | 44.51411 | 48.90231 | 35857 ft | 451 kts | 328° |
| 2026-04-24 13:45 | 44.57251 | 48.86830 | 35862 ft | 452 kts | 329° |
| 2026-04-24 13:45 | 44.63018 | 48.83491 | 35860 ft | 451 kts | 328° |
| 2026-04-24 13:46 | 44.68849 | 48.80061 | 35871 ft | 451 kts | 328° |
| 2026-04-24 13:46 | 44.74597 | 48.76662 | 35872 ft | 451 kts | 328° |
| 2026-04-24 13:47 | 44.80383 | 48.73234 | 35874 ft | 451 kts | 328° |
| 2026-04-24 13:47 | 44.86175 | 48.69814 | 35876 ft | 452 kts | 328° |
| 2026-04-24 13:48 | 44.91961 | 48.66388 | 35880 ft | 452 kts | 328° |
| 2026-04-24 13:48 | 44.97767 | 48.62941 | 35884 ft | 452 kts | 328° |
| 2026-04-24 13:49 | 45.03568 | 48.59491 | 35888 ft | 452 kts | 328° |
| 2026-04-24 13:49 | 45.09369 | 48.56033 | 35887 ft | 453 kts | 328° |
| 2026-04-24 13:50 | 45.15173 | 48.52567 | 35894 ft | 453 kts | 328° |
| 2026-04-24 13:50 | 45.20970 | 48.49084 | 35891 ft | 452 kts | 328° |
| 2026-04-24 13:51 | 45.26766 | 48.45599 | 35894 ft | 452 kts | 328° |
| 2026-04-24 13:51 | 45.32562 | 48.42113 | 35896 ft | 452 kts | 328° |
| 2026-04-24 13:52 | 45.38354 | 48.38619 | 35897 ft | 452 kts | 328° |
| 2026-04-24 13:52 | 45.44146 | 48.35115 | 35900 ft | 452 kts | 328° |
| 2026-04-24 13:53 | 45.49931 | 48.31605 | 35903 ft | 452 kts | 328° |
| 2026-04-24 13:53 | 45.55714 | 48.28090 | 35897 ft | 452 kts | 328° |
| 2026-04-24 13:54 | 45.61497 | 48.24566 | 35898 ft | 452 kts | 328° |
| 2026-04-24 13:54 | 45.67282 | 48.21038 | 35895 ft | 452 kts | 328° |
| 2026-04-24 13:55 | 45.73068 | 48.17500 | 35893 ft | 452 kts | 328° |
| 2026-04-24 13:55 | 45.78853 | 48.13953 | 35888 ft | 452 kts | 328° |
| 2026-04-24 13:56 | 45.84642 | 48.10399 | 35890 ft | 452 kts | 328° |
| 2026-04-24 13:56 | 45.90428 | 48.06837 | 35891 ft | 453 kts | 328° |
| 2026-04-24 13:57 | 45.96215 | 48.03268 | 35894 ft | 453 kts | 328° |
| 2026-04-24 13:57 | 46.02002 | 47.99690 | 35896 ft | 453 kts | 328° |
| 2026-04-24 13:58 | 46.07332 | 47.95246 | 35895 ft | 434 kts | 311° |
| 2026-04-24 13:58 | 46.11336 | 47.89049 | 35896 ft | 415 kts | 295° |
| 2026-04-24 13:59 | 46.14456 | 47.82096 | 35904 ft | 413 kts | 295° |
| 2026-04-24 13:59 | 46.17590 | 47.75133 | 35899 ft | 414 kts | 295° |
| 2026-04-24 14:00 | 46.20724 | 47.68175 | 35894 ft | 414 kts | 295° |
| 2026-04-24 14:00 | 46.23853 | 47.61205 | 35884 ft | 414 kts | 295° |
| 2026-04-24 14:01 | 46.26980 | 47.54224 | 35879 ft | 414 kts | 295° |
| 2026-04-24 14:01 | 46.30113 | 47.47239 | 35870 ft | 414 kts | 295° |
| 2026-04-24 14:02 | 46.33236 | 47.40253 | 35868 ft | 414 kts | 295° |
| 2026-04-24 14:02 | 46.36355 | 47.33255 | 35869 ft | 414 kts | 295° |
| 2026-04-24 14:03 | 46.38945 | 47.27419 | 35864 ft | 414 kts | 294° |
| 2026-04-24 14:03 | 46.42053 | 47.20386 | 35871 ft | 415 kts | 294° |
| 2026-04-24 14:04 | 46.45161 | 47.13344 | 35867 ft | 415 kts | 294° |
| 2026-04-24 14:04 | 46.48269 | 47.06293 | 35864 ft | 415 kts | 294° |
| 2026-04-24 14:05 | 46.51375 | 46.99236 | 35862 ft | 415 kts | 294° |
| 2026-04-24 14:05 | 46.54473 | 46.92168 | 35862 ft | 415 kts | 294° |
| 2026-04-24 14:06 | 46.57573 | 46.85085 | 35861 ft | 416 kts | 294° |
| 2026-04-24 14:06 | 46.60671 | 46.77989 | 35860 ft | 416 kts | 294° |
| 2026-04-24 14:07 | 46.63762 | 46.70889 | 35860 ft | 415 kts | 294° |
| 2026-04-24 14:07 | 46.66843 | 46.63788 | 35857 ft | 415 kts | 294° |
| 2026-04-24 14:08 | 46.69918 | 46.56680 | 35855 ft | 415 kts | 294° |
| 2026-04-24 14:08 | 46.72988 | 46.49570 | 35851 ft | 414 kts | 294° |
| 2026-04-24 14:09 | 46.76056 | 46.42456 | 35852 ft | 414 kts | 294° |
| 2026-04-24 14:09 | 46.79112 | 46.35326 | 35846 ft | 414 kts | 294° |
| 2026-04-24 14:10 | 46.82160 | 46.28179 | 35851 ft | 415 kts | 294° |
| 2026-04-24 14:10 | 46.85221 | 46.21030 | 35846 ft | 415 kts | 295° |
| 2026-04-24 14:11 | 46.88278 | 46.13870 | 35845 ft | 415 kts | 294° |
| 2026-04-24 14:12 | 46.93668 | 46.03837 | 35839 ft | 434 kts | 314° |
| 2026-04-24 14:12 | 46.96222 | 46.01394 | 35838 ft | 445 kts | 325° |
| 2026-04-24 14:12 | 46.99028 | 45.99433 | 35832 ft | 448 kts | 327° |
| 2026-04-24 14:13 | 47.04660 | 45.95529 | 35821 ft | 448 kts | 326° |
| 2026-04-24 14:13 | 47.10285 | 45.91582 | 35817 ft | 448 kts | 326° |
| 2026-04-24 14:14 | 47.15910 | 45.87624 | 35813 ft | 448 kts | 326° |
| 2026-04-24 14:14 | 47.24352 | 45.81675 | 35812 ft | 449 kts | 326° |
| 2026-04-24 14:15 | 47.29984 | 45.77702 | 35810 ft | 449 kts | 326° |
| 2026-04-24 14:15 | 47.35611 | 45.73712 | 35808 ft | 449 kts | 326° |
| 2026-04-24 14:16 | 47.41242 | 45.69718 | 35805 ft | 449 kts | 326° |
| 2026-04-24 14:17 | 47.49691 | 45.63704 | 35795 ft | 449 kts | 326° |
| 2026-04-24 14:17 | 47.58138 | 45.57672 | 35787 ft | 449 kts | 326° |
| 2026-04-24 14:18 | 47.63768 | 45.53633 | 35784 ft | 449 kts | 326° |
| 2026-04-24 14:18 | 47.69394 | 45.49587 | 35777 ft | 449 kts | 326° |
| 2026-04-24 14:19 | 47.75020 | 45.45548 | 35771 ft | 449 kts | 326° |
| 2026-04-24 14:19 | 47.80432 | 45.41077 | 35763 ft | 438 kts | 315° |
| 2026-04-24 14:20 | 47.84953 | 45.35166 | 35753 ft | 432 kts | 310° |
| 2026-04-24 14:20 | 47.89400 | 45.29152 | 35739 ft | 432 kts | 310° |
| 2026-04-24 14:21 | 47.93854 | 45.23118 | 35732 ft | 433 kts | 310° |
| 2026-04-24 14:21 | 47.98307 | 45.17069 | 35728 ft | 433 kts | 310° |
| 2026-04-24 14:22 | 48.02821 | 45.11067 | 35722 ft | 439 kts | 316° |
| 2026-04-24 14:23 | 48.10463 | 45.03342 | 35716 ft | 443 kts | 319° |
| 2026-04-24 14:23 | 48.15585 | 44.98216 | 35710 ft | 443 kts | 319° |
| 2026-04-24 14:24 | 48.20670 | 44.93106 | 35705 ft | 443 kts | 319° |
| 2026-04-24 14:24 | 48.25817 | 44.87900 | 35707 ft | 443 kts | 319° |
| 2026-04-24 14:25 | 48.30898 | 44.82753 | 35704 ft | 444 kts | 319° |
| 2026-04-24 14:25 | 48.36027 | 44.77562 | 35705 ft | 444 kts | 319° |
| 2026-04-24 14:26 | 48.41155 | 44.72358 | 35703 ft | 445 kts | 319° |
| 2026-04-24 14:26 | 48.46278 | 44.67125 | 35704 ft | 445 kts | 319° |
| 2026-04-24 14:27 | 48.51394 | 44.61879 | 35697 ft | 445 kts | 319° |
| 2026-04-24 14:27 | 48.56521 | 44.56626 | 35685 ft | 445 kts | 319° |
| 2026-04-24 14:28 | 48.61631 | 44.51382 | 35680 ft | 445 kts | 319° |
| 2026-04-24 14:28 | 48.66757 | 44.46102 | 35671 ft | 445 kts | 319° |
| 2026-04-24 14:29 | 48.71869 | 44.40822 | 35660 ft | 445 kts | 319° |
| 2026-04-24 14:29 | 48.76992 | 44.35554 | 35662 ft | 447 kts | 323° |
| 2026-04-24 14:30 | 48.81742 | 44.32268 | 35659 ft | 456 kts | 334° |
| 2026-04-24 14:30 | 48.88703 | 44.28365 | 35661 ft | 456 kts | 334° |
| 2026-04-24 14:31 | 48.94654 | 44.25006 | 35660 ft | 456 kts | 334° |
| 2026-04-24 14:31 | 49.00596 | 44.21625 | 35659 ft | 456 kts | 334° |
| 2026-04-24 14:32 | 49.06533 | 44.18235 | 35655 ft | 456 kts | 334° |
| 2026-04-24 14:32 | 49.12471 | 44.14846 | 35655 ft | 456 kts | 334° |
| 2026-04-24 14:33 | 49.18411 | 44.11454 | 35654 ft | 456 kts | 334° |
| 2026-04-24 14:33 | 49.24350 | 44.08047 | 35651 ft | 456 kts | 334° |
| 2026-04-24 14:34 | 49.30293 | 44.04627 | 35649 ft | 456 kts | 334° |
| 2026-04-24 14:34 | 49.36227 | 44.01210 | 35643 ft | 456 kts | 334° |
| 2026-04-24 14:35 | 49.42154 | 43.97775 | 35640 ft | 455 kts | 334° |
| 2026-04-24 14:35 | 49.48077 | 43.94327 | 35638 ft | 455 kts | 334° |
| 2026-04-24 14:36 | 49.53838 | 43.90435 | 35639 ft | 449 kts | 326° |
| 2026-04-24 14:36 | 49.59330 | 43.85831 | 35624 ft | 449 kts | 326° |
| 2026-04-24 14:37 | 49.64826 | 43.81227 | 35618 ft | 450 kts | 326° |
| 2026-04-24 14:37 | 49.70319 | 43.76611 | 35619 ft | 450 kts | 327° |
| 2026-04-24 14:38 | 49.75810 | 43.71981 | 35617 ft | 449 kts | 327° |
| 2026-04-24 14:38 | 49.81294 | 43.67344 | 35614 ft | 449 kts | 327° |
| 2026-04-24 14:39 | 49.86778 | 43.62699 | 35607 ft | 449 kts | 327° |
| 2026-04-24 14:39 | 49.92221 | 43.58080 | 35601 ft | 449 kts | 327° |
| 2026-04-24 14:40 | 49.97698 | 43.53423 | 35592 ft | 449 kts | 327° |
| 2026-04-24 14:40 | 50.03175 | 43.48745 | 35587 ft | 449 kts | 327° |
| 2026-04-24 14:41 | 50.08647 | 43.44044 | 35585 ft | 449 kts | 327° |
| 2026-04-24 14:41 | 50.14159 | 43.39305 | 35583 ft | 449 kts | 327° |
| 2026-04-24 14:42 | 50.18711 | 43.35392 | 35584 ft | 449 kts | 327° |
| 2026-04-24 14:42 | 50.25102 | 43.29889 | 35579 ft | 449 kts | 327° |
| 2026-04-24 14:43 | 50.30566 | 43.25158 | 35576 ft | 449 kts | 327° |
| 2026-04-24 14:43 | 50.36021 | 43.20416 | 35576 ft | 449 kts | 327° |
| 2026-04-24 14:44 | 50.41474 | 43.15672 | 35570 ft | 448 kts | 327° |
| 2026-04-24 14:44 | 50.46929 | 43.10923 | 35566 ft | 448 kts | 327° |
| 2026-04-24 14:45 | 50.52341 | 43.06196 | 35566 ft | 448 kts | 327° |
| 2026-04-24 14:45 | 50.57783 | 43.01430 | 35561 ft | 448 kts | 327° |
| 2026-04-24 14:46 | 50.63224 | 42.96643 | 35556 ft | 448 kts | 327° |
| 2026-04-24 14:46 | 50.67778 | 42.92624 | 35556 ft | 447 kts | 327° |
| 2026-04-24 14:47 | 50.73531 | 42.88801 | 35549 ft | 451 kts | 338° |
| 2026-04-24 14:47 | 50.79458 | 42.85523 | 35546 ft | 451 kts | 338° |
| 2026-04-24 14:48 | 50.85347 | 42.82247 | 35543 ft | 451 kts | 338° |
| 2026-04-24 14:48 | 50.91268 | 42.78940 | 35542 ft | 451 kts | 338° |
| 2026-04-24 14:49 | 50.97184 | 42.75616 | 35540 ft | 451 kts | 338° |
| 2026-04-24 14:49 | 51.03100 | 42.72284 | 35536 ft | 451 kts | 338° |
| 2026-04-24 14:50 | 51.09019 | 42.68946 | 35535 ft | 451 kts | 338° |
| 2026-04-24 14:50 | 51.14938 | 42.65598 | 35534 ft | 451 kts | 338° |
| 2026-04-24 14:51 | 51.20846 | 42.62235 | 35531 ft | 451 kts | 338° |
| 2026-04-24 14:51 | 51.26758 | 42.58880 | 35526 ft | 450 kts | 338° |
| 2026-04-24 14:52 | 51.32653 | 42.55524 | 35521 ft | 450 kts | 338° |
| 2026-04-24 14:52 | 51.38548 | 42.52159 | 35512 ft | 450 kts | 338° |
| 2026-04-24 14:53 | 51.44436 | 42.48788 | 35510 ft | 449 kts | 338° |
| 2026-04-24 14:53 | 51.50323 | 42.45391 | 35509 ft | 449 kts | 338° |
| 2026-04-24 14:54 | 51.56206 | 42.41983 | 35510 ft | 449 kts | 338° |
| 2026-04-24 14:54 | 51.62092 | 42.38587 | 35509 ft | 449 kts | 338° |
| 2026-04-24 14:55 | 51.67972 | 42.35187 | 35502 ft | 449 kts | 338° |
| 2026-04-24 14:55 | 51.73849 | 42.31772 | 35504 ft | 449 kts | 338° |
| 2026-04-24 14:56 | 51.79723 | 42.28348 | 35501 ft | 449 kts | 338° |
| 2026-04-24 14:56 | 51.85593 | 42.24905 | 35501 ft | 449 kts | 338° |
| 2026-04-24 14:57 | 51.91459 | 42.21470 | 35498 ft | 448 kts | 338° |
| 2026-04-24 14:57 | 51.97310 | 42.17981 | 35485 ft | 448 kts | 336° |
| 2026-04-24 14:58 | 52.02998 | 42.14068 | 35490 ft | 447 kts | 334° |
| 2026-04-24 14:58 | 52.08689 | 42.09872 | 35487 ft | 446 kts | 334° |
| 2026-04-24 14:59 | 52.14318 | 42.05778 | 35489 ft | 446 kts | 334° |
| 2026-04-24 14:59 | 52.20004 | 42.01748 | 35484 ft | 445 kts | 335° |
| 2026-04-24 15:00 | 52.25686 | 41.97731 | 35480 ft | 445 kts | 335° |
| 2026-04-24 15:00 | 52.31357 | 41.93683 | 35472 ft | 444 kts | 335° |
| 2026-04-24 15:01 | 52.37015 | 41.89615 | 35471 ft | 444 kts | 335° |
| 2026-04-24 15:01 | 52.42674 | 41.85548 | 35465 ft | 444 kts | 335° |
| 2026-04-24 15:02 | 52.48329 | 41.81479 | 35463 ft | 444 kts | 335° |
| 2026-04-24 15:02 | 52.53978 | 41.77403 | 35457 ft | 443 kts | 335° |
| 2026-04-24 15:03 | 52.59618 | 41.73313 | 35464 ft | 443 kts | 335° |
| 2026-04-24 15:03 | 52.65255 | 41.69211 | 35459 ft | 443 kts | 335° |
| 2026-04-24 15:04 | 52.70888 | 41.65103 | 35463 ft | 442 kts | 335° |
| 2026-04-24 15:04 | 52.76475 | 41.61021 | 35464 ft | 442 kts | 335° |
| 2026-04-24 15:05 | 52.82132 | 41.56867 | 35466 ft | 442 kts | 335° |
| 2026-04-24 15:05 | 52.87750 | 41.52744 | 35467 ft | 442 kts | 335° |
| 2026-04-24 15:06 | 52.93369 | 41.48607 | 35461 ft | 442 kts | 335° |
| 2026-04-24 15:06 | 52.98940 | 41.44486 | 35461 ft | 441 kts | 335° |
| 2026-04-24 15:07 | 53.04546 | 41.40336 | 35461 ft | 441 kts | 335° |
| 2026-04-24 15:07 | 53.10139 | 41.36157 | 35466 ft | 441 kts | 335° |
| 2026-04-24 15:08 | 53.15733 | 41.31985 | 35466 ft | 440 kts | 336° |
| 2026-04-24 15:08 | 53.21194 | 41.27418 | 35473 ft | 439 kts | 325° |
| 2026-04-24 15:09 | 53.25553 | 41.20335 | 35469 ft | 440 kts | 307° |
| 2026-04-24 15:09 | 53.29184 | 41.12112 | 35467 ft | 440 kts | 308° |
| 2026-04-24 15:10 | 53.32825 | 41.03891 | 35478 ft | 440 kts | 308° |
| 2026-04-24 15:10 | 53.36457 | 40.95654 | 35484 ft | 440 kts | 307° |
| 2026-04-24 15:11 | 53.40077 | 40.87393 | 35486 ft | 440 kts | 308° |
| 2026-04-24 15:11 | 53.43688 | 40.79124 | 35488 ft | 440 kts | 308° |
| 2026-04-24 15:12 | 53.47298 | 40.70840 | 35493 ft | 440 kts | 308° |
| 2026-04-24 15:12 | 53.52706 | 40.58401 | 35501 ft | 440 kts | 308° |
| 2026-04-24 15:13 | 53.56302 | 40.50092 | 35504 ft | 439 kts | 307° |
| 2026-04-24 15:13 | 53.59890 | 40.41777 | 35509 ft | 439 kts | 308° |
| 2026-04-24 15:14 | 53.63479 | 40.33428 | 35512 ft | 439 kts | 307° |
| 2026-04-24 15:14 | 53.67047 | 40.25069 | 35518 ft | 439 kts | 307° |
| 2026-04-24 15:15 | 53.70613 | 40.16704 | 35520 ft | 439 kts | 308° |
| 2026-04-24 15:15 | 53.74176 | 40.08337 | 35521 ft | 439 kts | 308° |
| 2026-04-24 15:16 | 53.77737 | 39.99949 | 35527 ft | 439 kts | 307° |
| 2026-04-24 15:16 | 53.81281 | 39.91548 | 35533 ft | 439 kts | 307° |
| 2026-04-24 15:17 | 53.84799 | 39.83195 | 35535 ft | 438 kts | 307° |
| 2026-04-24 15:17 | 53.88335 | 39.74778 | 35537 ft | 438 kts | 307° |
| 2026-04-24 15:18 | 53.91859 | 39.66356 | 35540 ft | 438 kts | 307° |
| 2026-04-24 15:18 | 53.95377 | 39.57916 | 35540 ft | 438 kts | 307° |
| 2026-04-24 15:19 | 53.98888 | 39.49465 | 35454 ft | 438 kts | 307° |
| 2026-04-24 15:19 | 54.00651 | 39.45206 | 34614 ft | 444 kts | 307° |
| 2026-04-24 15:19 | 54.02420 | 39.40913 | 34030 ft | 441 kts | 307° |
| 2026-04-24 15:20 | 54.04173 | 39.36650 | 33480 ft | 438 kts | 307° |
| 2026-04-24 15:20 | 54.05915 | 39.32418 | 32885 ft | 434 kts | 308° |
| 2026-04-24 15:20 | 54.07637 | 39.28237 | 32357 ft | 429 kts | 308° |
| 2026-04-24 15:20 | 54.09337 | 39.24105 | 31818 ft | 424 kts | 308° |
| 2026-04-24 15:21 | 54.11018 | 39.20014 | 31303 ft | 419 kts | 308° |
| 2026-04-24 15:21 | 54.12685 | 39.15957 | 30782 ft | 415 kts | 308° |
| 2026-04-24 15:21 | 54.14332 | 39.11940 | 30281 ft | 411 kts | 308° |
| 2026-04-24 15:21 | 54.15958 | 39.07955 | 29769 ft | 408 kts | 308° |
| 2026-04-24 15:22 | 54.17568 | 39.04003 | 29213 ft | 404 kts | 308° |
| 2026-04-24 15:22 | 54.19159 | 39.00092 | 28738 ft | 398 kts | 308° |
| 2026-04-24 15:22 | 54.20722 | 38.96237 | 28265 ft | 392 kts | 307° |
| 2026-04-24 15:23 | 54.24397 | 38.89723 | 27381 ft | 375 kts | 328° |
| 2026-04-24 15:23 | 54.29077 | 38.86092 | 26751 ft | 369 kts | 340° |
| 2026-04-24 15:23 | 54.31476 | 38.84539 | 26426 ft | 367 kts | 340° |
| 2026-04-24 15:24 | 54.38590 | 38.79915 | 25433 ft | 362 kts | 340° |
| 2026-04-24 15:25 | 54.42503 | 38.77357 | 24892 ft | 362 kts | 340° |
| 2026-04-24 15:25 | 54.48004 | 38.73764 | 24129 ft | 363 kts | 340° |
| 2026-04-24 15:26 | 54.55071 | 38.69129 | 23146 ft | 365 kts | 339° |
| 2026-04-24 15:27 | 54.62171 | 38.64447 | 22125 ft | 361 kts | 339° |
| 2026-04-24 15:27 | 54.69119 | 38.59849 | 21162 ft | 353 kts | 339° |
| 2026-04-24 15:28 | 54.78153 | 38.53851 | 19913 ft | 343 kts | 339° |
| 2026-04-24 15:29 | 54.82584 | 38.50904 | 19292 ft | 339 kts | 339° |
| 2026-04-24 15:30 | 54.89130 | 38.46528 | 18388 ft | 334 kts | 339° |
| 2026-04-24 15:31 | 54.97002 | 38.41246 | 17263 ft | 328 kts | 339° |
| 2026-04-24 15:32 | 55.06109 | 38.35103 | 15994 ft | 319 kts | 339° |
| 2026-04-24 15:33 | 55.13582 | 38.30032 | 14960 ft | 311 kts | 339° |
| 2026-04-24 15:33 | 55.20225 | 38.25526 | 14040 ft | 305 kts | 339° |
| 2026-04-24 15:34 | 55.24142 | 38.22852 | 13485 ft | 300 kts | 339° |
| 2026-04-24 15:35 | 55.29318 | 38.19309 | 12748 ft | 296 kts | 339° |
| 2026-04-24 15:35 | 55.33001 | 38.16201 | 12217 ft | 294 kts | 324° |
| 2026-04-24 15:35 | 55.34634 | 38.14050 | 11945 ft | 293 kts | 324° |
| 2026-04-24 15:36 | 55.36259 | 38.11908 | 11697 ft | 291 kts | 324° |
| 2026-04-24 15:36 | 55.39481 | 38.07644 | 11161 ft | 288 kts | 324° |
| 2026-04-24 15:36 | 55.41080 | 38.05524 | 10902 ft | 287 kts | 324° |
| 2026-04-24 15:37 | 55.42669 | 38.03418 | 10638 ft | 286 kts | 324° |
| 2026-04-24 15:37 | 55.44234 | 38.01345 | 10377 ft | 284 kts | 324° |
| 2026-04-24 15:37 | 55.45812 | 37.99258 | 10126 ft | 283 kts | 324° |
| 2026-04-24 15:37 | 55.47363 | 37.97204 | 9975 ft | 275 kts | 324° |
| 2026-04-24 15:38 | 55.47879 | 37.96528 | 9960 ft | 273 kts | 326° |
| 2026-04-24 15:38 | 55.48373 | 37.95957 | 9967 ft | 272 kts | 330° |
| 2026-04-24 15:38 | 55.50105 | 37.94903 | 9966 ft | 271 kts | 347° |
| 2026-04-24 15:38 | 55.51963 | 37.94338 | 9973 ft | 271 kts | 351° |
| 2026-04-24 15:39 | 55.53828 | 37.93849 | 10001 ft | 271 kts | 351° |
| 2026-04-24 15:39 | 55.55694 | 37.93381 | 9997 ft | 271 kts | 352° |
| 2026-04-24 15:39 | 55.57561 | 37.92933 | 10001 ft | 271 kts | 352° |
| 2026-04-24 15:39 | 55.59430 | 37.92503 | 9998 ft | 271 kts | 352° |
| 2026-04-24 15:40 | 55.61300 | 37.92084 | 9898 ft | 270 kts | 352° |
| 2026-04-24 15:40 | 55.63162 | 37.91672 | 9175 ft | 269 kts | 352° |
| 2026-04-24 15:40 | 55.65012 | 37.91264 | 8448 ft | 267 kts | 352° |
| 2026-04-24 15:40 | 55.66841 | 37.90857 | 7754 ft | 263 kts | 352° |
| 2026-04-24 15:41 | 55.68639 | 37.90452 | 7237 ft | 255 kts | 352° |
| 2026-04-24 15:41 | 55.70391 | 37.90062 | 7109 ft | 255 kts | 352° |
| 2026-04-24 15:41 | 55.72162 | 37.89673 | 6898 ft | 255 kts | 352° |
| 2026-04-24 15:41 | 55.73919 | 37.89287 | 6457 ft | 253 kts | 352° |
| 2026-04-24 15:42 | 55.75649 | 37.88905 | 6114 ft | 250 kts | 352° |
| 2026-04-24 15:42 | 55.77367 | 37.88523 | 5833 ft | 248 kts | 352° |
| 2026-04-24 15:42 | 55.79077 | 37.88140 | 5572 ft | 247 kts | 352° |
| 2026-04-24 15:42 | 55.80785 | 37.87758 | 5318 ft | 247 kts | 352° |
| 2026-04-24 15:43 | 55.82453 | 37.87384 | 5143 ft | 235 kts | 352° |
| 2026-04-24 15:43 | 55.84036 | 37.87028 | 5011 ft | 223 kts | 352° |
| 2026-04-24 15:43 | 55.85539 | 37.86693 | 4943 ft | 210 kts | 352° |
| 2026-04-24 15:43 | 55.86962 | 37.86094 | 4954 ft | 213 kts | 338° |
| 2026-04-24 15:44 | 55.88312 | 37.84990 | 4707 ft | 212 kts | 335° |
| 2026-04-24 15:44 | 55.89640 | 37.83878 | 4500 ft | 211 kts | 335° |
| 2026-04-24 15:44 | 55.90966 | 37.82768 | 4291 ft | 210 kts | 335° |
| 2026-04-24 15:44 | 55.92282 | 37.81663 | 4085 ft | 209 kts | 335° |
| 2026-04-24 15:45 | 55.93597 | 37.80556 | 3884 ft | 209 kts | 335° |
| 2026-04-24 15:45 | 55.94906 | 37.79453 | 3687 ft | 207 kts | 335° |
| 2026-04-24 15:45 | 55.96189 | 37.78372 | 3483 ft | 201 kts | 335° |
| 2026-04-24 15:45 | 55.97432 | 37.77333 | 3392 ft | 192 kts | 335° |
| 2026-04-24 15:46 | 55.98591 | 37.76367 | 3317 ft | 182 kts | 335° |
| 2026-04-24 15:46 | 55.99710 | 37.75431 | 3271 ft | 173 kts | 334° |
| 2026-04-24 15:46 | 56.00772 | 37.74486 | 3178 ft | 169 kts | 326° |
| 2026-04-24 15:46 | 56.01475 | 37.72844 | 3087 ft | 172 kts | 292° |
| 2026-04-24 15:47 | 56.01485 | 37.70686 | 2935 ft | 180 kts | 261° |
| 2026-04-24 15:47 | 56.01148 | 37.68523 | 2794 ft | 180 kts | 260° |
| 2026-04-24 15:47 | 56.00819 | 37.66368 | 2642 ft | 180 kts | 260° |
| 2026-04-24 15:47 | 56.00498 | 37.64206 | 2553 ft | 180 kts | 261° |
| 2026-04-24 15:48 | 56.00180 | 37.62055 | 2502 ft | 179 kts | 261° |
| 2026-04-24 15:48 | 55.99861 | 37.59888 | 2439 ft | 181 kts | 261° |
| 2026-04-24 15:48 | 55.99541 | 37.57712 | 2239 ft | 181 kts | 261° |
| 2026-04-24 15:48 | 55.99223 | 37.55562 | 2007 ft | 177 kts | 261° |
| 2026-04-24 15:49 | 55.98910 | 37.53445 | 1767 ft | 176 kts | 261° |
| 2026-04-24 15:49 | 55.98601 | 37.51358 | 1497 ft | 168 kts | 260° |
| 2026-04-24 15:49 | 55.98317 | 37.49465 | 1264 ft | 150 kts | 261° |
| 2026-04-24 15:49 | 55.98055 | 37.47732 | 1039 ft | 141 kts | 259° |
| 2026-04-24 15:50 | 55.97819 | 37.46079 | 858 ft | 136 kts | 260° |
| 2026-04-24 15:50 | 55.97601 | 37.44595 | 701 ft | 134 kts | 260° |
| 2026-04-24 15:50 | 55.97378 | 37.43030 | 642 ft | 118 kts | 254° |
| 2026-04-24 15:50 | 55.97203 | 37.41888 | 638 ft | 71 kts | 255° |
| 2026-04-24 15:51 | 55.97137 | 37.41454 | 641 ft | 14 kts | 257° |
| 2026-04-24 15:51 | 55.97189 | 37.41335 | 639 ft | 12 kts | 342° |
| 2026-04-24 15:51 | 55.97245 | 37.41308 | 646 ft | 9 kts | 345° |
| 2026-04-24 15:51 | 55.97342 | 37.41261 | 640 ft | 17 kts | 345° |
| 2026-04-24 15:52 | 55.97447 | 37.41212 | 639 ft | 12 kts | 345° |
| 2026-04-24 15:52 | 55.97527 | 37.41173 | 639 ft | 13 kts | 345° |
| 2026-04-24 15:52 | 55.97609 | 37.41162 | 643 ft | 12 kts | 27° |
| 2026-04-24 15:52 | 55.97642 | 37.41293 | 640 ft | 11 kts | 75° |
| 2026-04-24 15:53 | 55.97660 | 37.41418 | 640 ft | 10 kts | 75° |
| 2026-04-24 15:53 | 55.97676 | 37.41526 | 644 ft | 8 kts | 75° |
| 2026-04-24 15:53 | 55.97689 | 37.41618 | 639 ft | 7 kts | 75° |
| 2026-04-24 15:53 | 55.97701 | 37.41696 | 639 ft | 6 kts | 75° |
| 2026-04-24 15:54 | 55.97712 | 37.41766 | 641 ft | 6 kts | 75° |
| 2026-04-24 15:54 | 55.97724 | 37.41832 | 645 ft | 5 kts | 62° |
| 2026-04-24 15:54 | 55.97748 | 37.41836 | 646 ft | 3 kts | 346° |
| 2026-04-24 15:54 | 55.97778 | 37.41822 | 647 ft | 2 kts | 345° |
| 2026-04-24 15:55 | 55.97789 | 37.41817 | 643 ft | 2 kts | 345° |
| 2026-04-24 15:55 | 55.97795 | 37.41814 | 642 ft | 0 kts | 345° |
| 2026-04-24 15:55 | 55.97798 | 37.41813 | 642 ft | 0 kts | 345° |